WZZ4303 EDDF-LFMN
Flight info
| Callsign | WZZ4303 |
|---|---|
| Flight time | N/A |
| Altitude | 39000 |
| Route | ANEKI2L ANEKI Y163 NATOR/N0449F390 DCT TRA DCT RIPUS DCT GERSA DCT SOSON DCT ODINA DCT ENOBA/N0382F190 Z185 BORDI BORDI8R |
| Aircraft | A320/M-SDE2E3FGIJ1RWYZ/LB1 |
Departure
| Time | 2026-05-04 21:23 |
|---|---|
| Airport | Frankfurt Main Airport (EDDF) |
Arrival
| Time | N/A |
|---|---|
| Airport | Nice-Côte d'Azur Airport (LFMN) |
| Time | Latitude | Longitude | Altitude | Speed | Heading |
|---|---|---|---|---|---|
| 2026-05-04 21:02 | 50.04696 | 8.57100 | 359 ft | 0 kts | 115° |
| 2026-05-04 21:12 | 50.04700 | 8.57087 | 366 ft | 3 kts | 115° |
| 2026-05-04 21:12 | 50.04708 | 8.57061 | 361 ft | 3 kts | 127° |
| 2026-05-04 21:12 | 50.04724 | 8.57043 | 366 ft | 3 kts | 161° |
| 2026-05-04 21:13 | 50.04741 | 8.57033 | 359 ft | 3 kts | 165° |
| 2026-05-04 21:13 | 50.04752 | 8.57031 | 363 ft | 0 kts | 181° |
| 2026-05-04 21:14 | 50.04753 | 8.57031 | 363 ft | 2 kts | 180° |
| 2026-05-04 21:14 | 50.04770 | 8.57031 | 359 ft | 2 kts | 180° |
| 2026-05-04 21:15 | 50.04786 | 8.57032 | 359 ft | 2 kts | 180° |
| 2026-05-04 21:15 | 50.04798 | 8.57034 | 359 ft | 0 kts | 200° |
| 2026-05-04 21:16 | 50.04798 | 8.57033 | 359 ft | 0 kts | 200° |
| 2026-05-04 21:16 | 50.04790 | 8.57025 | 368 ft | 2 kts | 217° |
| 2026-05-04 21:16 | 50.04787 | 8.57020 | 367 ft | 0 kts | 226° |
| 2026-05-04 21:16 | 50.04786 | 8.57019 | 367 ft | 0 kts | 213° |
| 2026-05-04 21:17 | 50.04741 | 8.56994 | 359 ft | 14 kts | 200° |
| 2026-05-04 21:17 | 50.04646 | 8.56929 | 365 ft | 16 kts | 203° |
| 2026-05-04 21:17 | 50.04541 | 8.56886 | 362 ft | 15 kts | 193° |
| 2026-05-04 21:17 | 50.04429 | 8.56850 | 369 ft | 19 kts | 187° |
| 2026-05-04 21:18 | 50.04291 | 8.56813 | 365 ft | 19 kts | 193° |
| 2026-05-04 21:18 | 50.04227 | 8.56709 | 362 ft | 12 kts | 247° |
| 2026-05-04 21:18 | 50.04203 | 8.56595 | 360 ft | 12 kts | 249° |
| 2026-05-04 21:18 | 50.04168 | 8.56451 | 365 ft | 16 kts | 249° |
| 2026-05-04 21:19 | 50.04121 | 8.56247 | 360 ft | 23 kts | 248° |
| 2026-05-04 21:19 | 50.04062 | 8.56011 | 359 ft | 24 kts | 252° |
| 2026-05-04 21:19 | 50.04006 | 8.55759 | 361 ft | 26 kts | 251° |
| 2026-05-04 21:19 | 50.03936 | 8.55482 | 359 ft | 28 kts | 250° |
| 2026-05-04 21:20 | 50.03865 | 8.55179 | 359 ft | 31 kts | 249° |
| 2026-05-04 21:20 | 50.03786 | 8.54851 | 353 ft | 34 kts | 250° |
| 2026-05-04 21:20 | 50.03699 | 8.54491 | 351 ft | 38 kts | 250° |
| 2026-05-04 21:20 | 50.03612 | 8.54127 | 350 ft | 23 kts | 251° |
| 2026-05-04 21:21 | 50.03553 | 8.53873 | 344 ft | 26 kts | 249° |
| 2026-05-04 21:21 | 50.03484 | 8.53593 | 345 ft | 29 kts | 249° |
| 2026-05-04 21:21 | 50.03411 | 8.53288 | 341 ft | 32 kts | 251° |
| 2026-05-04 21:21 | 50.03331 | 8.52948 | 334 ft | 35 kts | 248° |
| 2026-05-04 21:22 | 50.03219 | 8.52621 | 336 ft | 32 kts | 211° |
| 2026-05-04 21:22 | 50.03089 | 8.52598 | 339 ft | 0 kts | 178° |
| 2026-05-04 21:23 | 50.03028 | 8.52600 | 335 ft | 40 kts | 180° |
| 2026-05-04 21:23 | 50.02371 | 8.52603 | 339 ft | 151 kts | 179° |
| 2026-05-04 21:23 | 50.01141 | 8.52595 | 1011 ft | 185 kts | 182° |
| 2026-05-04 21:23 | 49.99816 | 8.52546 | 2188 ft | 196 kts | 181° |
| 2026-05-04 21:24 | 49.98401 | 8.52494 | 3289 ft | 213 kts | 182° |
| 2026-05-04 21:24 | 49.96863 | 8.52433 | 4435 ft | 228 kts | 182° |
| 2026-05-04 21:24 | 49.95204 | 8.52560 | 5487 ft | 250 kts | 175° |
| 2026-05-04 21:24 | 49.93455 | 8.52837 | 6346 ft | 259 kts | 175° |
| 2026-05-04 21:25 | 49.91653 | 8.53087 | 7154 ft | 261 kts | 177° |
| 2026-05-04 21:25 | 49.89832 | 8.53286 | 7978 ft | 263 kts | 178° |
| 2026-05-04 21:25 | 49.87994 | 8.53452 | 8828 ft | 266 kts | 178° |
| 2026-05-04 21:25 | 49.86137 | 8.53598 | 9658 ft | 269 kts | 179° |
| 2026-05-04 21:26 | 49.84257 | 8.53734 | 10217 ft | 272 kts | 179° |
| 2026-05-04 21:26 | 49.82314 | 8.53866 | 10742 ft | 293 kts | 179° |
| 2026-05-04 21:26 | 49.80180 | 8.54006 | 11287 ft | 321 kts | 179° |
| 2026-05-04 21:26 | 49.77879 | 8.54088 | 11978 ft | 340 kts | 183° |
| 2026-05-04 21:27 | 49.75455 | 8.53837 | 12699 ft | 357 kts | 185° |
| 2026-05-04 21:27 | 49.72934 | 8.53494 | 13441 ft | 372 kts | 186° |
| 2026-05-04 21:27 | 49.70308 | 8.53130 | 14144 ft | 385 kts | 186° |
| 2026-05-04 21:27 | 49.67604 | 8.52762 | 14822 ft | 395 kts | 185° |
| 2026-05-04 21:28 | 49.64824 | 8.52388 | 15513 ft | 405 kts | 185° |
| 2026-05-04 21:28 | 49.61984 | 8.52010 | 16227 ft | 412 kts | 185° |
| 2026-05-04 21:28 | 49.59115 | 8.51630 | 16945 ft | 418 kts | 185° |
| 2026-05-04 21:28 | 49.56191 | 8.51245 | 17685 ft | 423 kts | 185° |
| 2026-05-04 21:29 | 49.53285 | 8.50862 | 18406 ft | 427 kts | 185° |
| 2026-05-04 21:29 | 49.50309 | 8.50471 | 19067 ft | 430 kts | 185° |
| 2026-05-04 21:29 | 49.47313 | 8.50079 | 19744 ft | 434 kts | 186° |
| 2026-05-04 21:29 | 49.44296 | 8.49683 | 20435 ft | 437 kts | 186° |
| 2026-05-04 21:30 | 49.41254 | 8.49286 | 21147 ft | 439 kts | 186° |
| 2026-05-04 21:30 | 49.38205 | 8.48887 | 21861 ft | 441 kts | 186° |
| 2026-05-04 21:30 | 49.35148 | 8.48488 | 22600 ft | 442 kts | 186° |
| 2026-05-04 21:30 | 49.32076 | 8.48088 | 23360 ft | 443 kts | 186° |
| 2026-05-04 21:31 | 49.25928 | 8.47289 | 24696 ft | 444 kts | 186° |
| 2026-05-04 21:31 | 49.22843 | 8.46887 | 25376 ft | 445 kts | 186° |
| 2026-05-04 21:31 | 49.19763 | 8.46487 | 26060 ft | 444 kts | 186° |
| 2026-05-04 21:32 | 49.16684 | 8.46087 | 26766 ft | 443 kts | 186° |
| 2026-05-04 21:32 | 49.13620 | 8.45690 | 27495 ft | 441 kts | 186° |
| 2026-05-04 21:32 | 49.10569 | 8.45295 | 28235 ft | 438 kts | 186° |
| 2026-05-04 21:32 | 49.07538 | 8.44857 | 28999 ft | 435 kts | 189° |
| 2026-05-04 21:33 | 49.04570 | 8.44056 | 29779 ft | 430 kts | 192° |
| 2026-05-04 21:33 | 49.01657 | 8.43136 | 30495 ft | 426 kts | 193° |
| 2026-05-04 21:33 | 48.98777 | 8.42164 | 31192 ft | 421 kts | 194° |
| 2026-05-04 21:33 | 48.95929 | 8.41172 | 31905 ft | 416 kts | 194° |
| 2026-05-04 21:34 | 48.93124 | 8.40183 | 32632 ft | 411 kts | 194° |
| 2026-05-04 21:34 | 48.90359 | 8.39207 | 33380 ft | 405 kts | 194° |
| 2026-05-04 21:34 | 48.87628 | 8.38249 | 34125 ft | 399 kts | 195° |
| 2026-05-04 21:34 | 48.84980 | 8.37325 | 34784 ft | 392 kts | 194° |
| 2026-05-04 21:35 | 48.82347 | 8.36410 | 35462 ft | 385 kts | 194° |
| 2026-05-04 21:35 | 48.79759 | 8.35514 | 36152 ft | 377 kts | 194° |
| 2026-05-04 21:35 | 48.77228 | 8.34620 | 36768 ft | 372 kts | 195° |
| 2026-05-04 21:35 | 48.74712 | 8.33708 | 37170 ft | 371 kts | 195° |
| 2026-05-04 21:36 | 48.72206 | 8.32790 | 37570 ft | 370 kts | 195° |
| 2026-05-04 21:36 | 48.69701 | 8.31868 | 37978 ft | 369 kts | 195° |
| 2026-05-04 21:36 | 48.67211 | 8.30954 | 38398 ft | 368 kts | 195° |
| 2026-05-04 21:36 | 48.64725 | 8.30044 | 38780 ft | 366 kts | 195° |
| 2026-05-04 21:37 | 48.62240 | 8.29136 | 38966 ft | 370 kts | 195° |
| 2026-05-04 21:37 | 48.57130 | 8.27273 | 38996 ft | 385 kts | 195° |
| 2026-05-04 21:38 | 48.51789 | 8.25432 | 38999 ft | 402 kts | 191° |
| 2026-05-04 21:38 | 48.46104 | 8.25160 | 39001 ft | 422 kts | 177° |
| 2026-05-04 21:39 | 48.40171 | 8.26360 | 39002 ft | 438 kts | 173° |
| 2026-05-04 21:39 | 48.34083 | 8.27899 | 38998 ft | 446 kts | 173° |
| 2026-05-04 21:40 | 48.27967 | 8.29455 | 38997 ft | 445 kts | 173° |
| 2026-05-04 21:40 | 48.21852 | 8.30960 | 39001 ft | 445 kts | 173° |
| 2026-05-04 21:41 | 48.15732 | 8.32436 | 39002 ft | 445 kts | 173° |
| 2026-05-04 21:41 | 48.09611 | 8.33915 | 39003 ft | 445 kts | 173° |
| 2026-05-04 21:42 | 48.03502 | 8.35394 | 39003 ft | 445 kts | 173° |
| 2026-05-04 21:42 | 47.97424 | 8.36863 | 39004 ft | 445 kts | 173° |
| 2026-05-04 21:43 | 47.91319 | 8.38334 | 39008 ft | 445 kts | 173° |
| 2026-05-04 21:43 | 47.85192 | 8.39807 | 39007 ft | 445 kts | 173° |
| 2026-05-04 21:44 | 47.79077 | 8.41273 | 39010 ft | 445 kts | 173° |
| 2026-05-04 21:44 | 47.72961 | 8.42736 | 39007 ft | 445 kts | 173° |
| 2026-05-04 21:45 | 47.66833 | 8.44090 | 39011 ft | 444 kts | 175° |
| 2026-05-04 21:45 | 47.60726 | 8.45026 | 39011 ft | 444 kts | 177° |
| 2026-05-04 21:46 | 47.54584 | 8.45861 | 39017 ft | 444 kts | 177° |
| 2026-05-04 21:46 | 47.48431 | 8.46725 | 39017 ft | 444 kts | 177° |
| 2026-05-04 21:47 | 47.42282 | 8.47618 | 39017 ft | 443 kts | 177° |
| 2026-05-04 21:47 | 47.36142 | 8.48518 | 39019 ft | 443 kts | 176° |
| 2026-05-04 21:48 | 47.30002 | 8.49417 | 39017 ft | 443 kts | 177° |
| 2026-05-04 21:48 | 47.23876 | 8.50311 | 39012 ft | 443 kts | 177° |
| 2026-05-04 21:49 | 47.17747 | 8.51204 | 39012 ft | 442 kts | 177° |
| 2026-05-04 21:49 | 47.11619 | 8.52095 | 39020 ft | 442 kts | 177° |
| 2026-05-04 21:50 | 47.05502 | 8.52982 | 39014 ft | 442 kts | 177° |
| 2026-05-04 21:50 | 46.99409 | 8.53863 | 39019 ft | 442 kts | 177° |
| 2026-05-04 21:51 | 46.93290 | 8.54745 | 39018 ft | 442 kts | 177° |
| 2026-05-04 21:51 | 46.87163 | 8.55627 | 39016 ft | 442 kts | 177° |
| 2026-05-04 21:52 | 46.81034 | 8.56506 | 39029 ft | 442 kts | 177° |
| 2026-05-04 21:52 | 46.74914 | 8.57382 | 39041 ft | 442 kts | 177° |
| 2026-05-04 21:53 | 46.68815 | 8.58253 | 39058 ft | 442 kts | 177° |
| 2026-05-04 21:53 | 46.62702 | 8.59125 | 39069 ft | 442 kts | 177° |
| 2026-05-04 21:54 | 46.56583 | 8.59994 | 39080 ft | 442 kts | 177° |
| 2026-05-04 21:54 | 46.50449 | 8.60864 | 39085 ft | 442 kts | 177° |
| 2026-05-04 21:55 | 46.44318 | 8.61731 | 39086 ft | 443 kts | 177° |
| 2026-05-04 21:55 | 46.38189 | 8.62596 | 39084 ft | 442 kts | 177° |
| 2026-05-04 21:56 | 46.32061 | 8.63460 | 39082 ft | 442 kts | 177° |
| 2026-05-04 21:56 | 46.25967 | 8.64316 | 39082 ft | 443 kts | 177° |
| 2026-05-04 21:57 | 46.19834 | 8.65175 | 39090 ft | 442 kts | 177° |
| 2026-05-04 21:57 | 46.16775 | 8.65604 | 38909 ft | 441 kts | 177° |
| 2026-05-04 21:57 | 46.13722 | 8.66031 | 38527 ft | 441 kts | 178° |
| 2026-05-04 21:57 | 46.10664 | 8.66195 | 38107 ft | 439 kts | 184° |
| 2026-05-04 21:58 | 46.08647 | 8.66001 | 37827 ft | 437 kts | 188° |
| 2026-05-04 21:58 | 46.05620 | 8.65536 | 37446 ft | 437 kts | 189° |
| 2026-05-04 21:58 | 46.02599 | 8.64971 | 37145 ft | 438 kts | 190° |
| 2026-05-04 21:58 | 45.99583 | 8.64353 | 36872 ft | 438 kts | 191° |
| 2026-05-04 21:59 | 45.96569 | 8.63717 | 36614 ft | 438 kts | 191° |
| 2026-05-04 21:59 | 45.93556 | 8.63077 | 36360 ft | 437 kts | 191° |